createdAt,value
2023-03-06T00:00:50.509Z,10.65
2023-03-06T00:03:17.290Z,14.90
2023-03-06T00:05:44.109Z,14.35
2023-03-06T00:08:11.331Z,11.93
2023-03-06T00:10:38.733Z,11.10
2023-03-06T00:13:08.207Z,11.15
2023-03-06T00:15:36.044Z,13.23
2023-03-06T00:18:06.815Z,11.25
2023-03-06T00:20:34.826Z,13.93
2023-03-06T00:23:02.042Z,9.88
2023-03-06T00:25:28.737Z,14.43
2023-03-06T00:27:55.401Z,8.50
2023-03-06T00:30:24.719Z,13.07
2023-03-06T00:32:52.777Z,9.43
2023-03-06T00:35:19.590Z,8.95
2023-03-06T00:37:46.403Z,12.30
2023-03-06T00:40:15.985Z,10.50
2023-03-06T00:42:42.754Z,14.00
2023-03-06T00:45:10.239Z,13.52
2023-03-06T00:47:37.126Z,12.77
2023-03-06T00:50:04.655Z,12.85
2023-03-06T00:52:31.444Z,12.65
2023-03-06T00:54:58.151Z,15.00
2023-03-06T00:57:25.159Z,12.13
2023-03-06T00:59:52.050Z,12.10
2023-03-06T01:02:18.801Z,9.98
2023-03-06T01:04:45.472Z,13.10
2023-03-06T01:07:12.349Z,13.52
2023-03-06T01:09:39.348Z,10.32
2023-03-06T01:12:06.241Z,13.57
2023-03-06T01:14:33.114Z,12.50
2023-03-06T01:16:59.774Z,12.80
2023-03-06T01:19:26.495Z,13.88
2023-03-06T01:21:53.383Z,12.10
2023-03-06T01:24:19.969Z,10.30
2023-03-06T01:26:46.643Z,11.82
2023-03-06T01:29:13.451Z,12.00
2023-03-06T01:31:40.181Z,8.40
2023-03-06T01:34:06.926Z,11.20
2023-03-06T01:36:33.913Z,10.02
2023-03-06T01:39:00.547Z,14.73
2023-03-06T01:41:27.251Z,13.02
2023-03-06T01:43:54.263Z,9.07
2023-03-06T01:46:30.592Z,9.73
2023-03-06T01:49:02.928Z,9.93
2023-03-06T01:51:35.324Z,12.82
2023-03-06T01:54:07.680Z,7.70
2023-03-06T01:56:35.081Z,10.90
2023-03-06T01:59:02.837Z,11.13
2023-03-06T02:01:31.149Z,10.32
2023-03-06T02:03:59.622Z,9.38
2023-03-06T02:06:27.157Z,9.38
2023-03-06T02:08:54.712Z,8.70
2023-03-06T02:11:25.751Z,12.48
2023-03-06T02:13:54.665Z,10.77
2023-03-06T02:16:26.675Z,10.80
2023-03-06T02:18:53.902Z,8.20
2023-03-06T02:21:25.417Z,8.82
2023-03-06T02:24:12.395Z,12.23
2023-03-06T02:26:41.988Z,11.07
2023-03-06T02:29:09.302Z,6.90
2023-03-06T02:31:36.189Z,8.00
2023-03-06T02:34:15.002Z,5.50
2023-03-06T02:36:46.075Z,5.97
2023-03-06T02:39:13.628Z,6.68
2023-03-06T02:41:41.123Z,3.97
2023-03-06T02:44:08.083Z,6.55
2023-03-06T02:46:34.768Z,4.43
2023-03-06T02:49:01.535Z,6.38
2023-03-06T02:51:28.589Z,4.50
2023-03-06T02:53:55.237Z,6.90
2023-03-06T02:56:22.458Z,4.18
2023-03-06T02:58:49.190Z,8.68
2023-03-06T03:01:16.041Z,3.72
2023-03-06T03:03:42.681Z,4.30
2023-03-06T03:06:09.723Z,3.33
2023-03-06T03:08:36.571Z,4.43
2023-03-06T03:11:04.591Z,6.25
2023-03-06T03:13:31.326Z,5.65
2023-03-06T03:16:00.261Z,6.10
2023-03-06T03:18:27.172Z,7.75
2023-03-06T03:20:54.892Z,6.38
2023-03-06T03:23:22.374Z,9.38
2023-03-06T03:25:49.276Z,9.48
2023-03-06T03:28:16.403Z,9.43
2023-03-06T03:30:43.191Z,10.05
2023-03-06T03:33:10.318Z,7.30
2023-03-06T03:35:37.319Z,9.27
2023-03-06T03:38:03.990Z,7.85
2023-03-06T03:40:30.787Z,7.93
2023-03-06T03:42:57.804Z,7.28
2023-03-06T03:45:24.471Z,8.25
2023-03-06T03:47:53.292Z,8.43
2023-03-06T03:50:20.316Z,6.85
2023-03-06T03:52:47.015Z,7.45
2023-03-06T03:55:13.702Z,6.07
2023-03-06T03:57:40.503Z,5.75
2023-03-06T04:00:08.161Z,6.65
2023-03-06T04:02:35.004Z,4.45
2023-03-06T04:05:01.957Z,4.90
2023-03-06T04:07:28.563Z,7.10
2023-03-06T04:09:55.255Z,6.95
2023-03-06T04:12:22.174Z,4.95
2023-03-06T04:14:48.814Z,3.58
2023-03-06T04:17:15.455Z,4.60
2023-03-06T04:19:42.196Z,5.57
2023-03-06T04:22:08.892Z,4.97
2023-03-06T04:24:35.680Z,3.92
2023-03-06T04:27:02.411Z,4.78
2023-03-06T04:29:29.089Z,6.10
2023-03-06T04:31:55.737Z,6.43
2023-03-06T04:34:22.461Z,4.25
2023-03-06T04:36:49.180Z,4.88
2023-03-06T04:39:15.822Z,3.72
2023-03-06T04:41:42.902Z,5.15
2023-03-06T04:44:10.080Z,3.78
2023-03-06T04:46:36.982Z,3.97
2023-03-06T04:49:04.525Z,6.32
2023-03-06T04:51:31.478Z,8.48
2023-03-06T04:53:58.542Z,5.82
2023-03-06T04:56:25.359Z,5.38
2023-03-06T04:58:52.090Z,3.92
2023-03-06T05:01:18.832Z,4.45
2023-03-06T05:03:45.852Z,5.47
2023-03-06T05:06:12.585Z,6.50
2023-03-06T05:08:39.330Z,6.00
2023-03-06T05:11:06.236Z,5.53
2023-03-06T05:13:33.294Z,7.28
2023-03-06T05:16:05.088Z,7.57
2023-03-06T05:18:33.021Z,8.38
2023-03-06T05:21:00.193Z,8.65
2023-03-06T05:23:31.372Z,5.68
2023-03-06T05:25:58.485Z,8.18
2023-03-06T05:28:26.098Z,6.22
2023-03-06T05:30:52.812Z,9.02
2023-03-06T05:33:19.774Z,9.07
2023-03-06T05:35:47.958Z,11.35
2023-03-06T05:38:15.814Z,11.95
2023-03-06T05:40:44.360Z,12.13
2023-03-06T05:43:12.416Z,12.07
2023-03-06T05:45:40.626Z,11.98
2023-03-06T05:48:08.263Z,10.75
2023-03-06T05:50:35.394Z,12.23
2023-03-06T05:53:02.125Z,12.23
2023-03-06T05:55:29.075Z,11.18
2023-03-06T05:57:55.704Z,11.05
2023-03-06T06:00:22.841Z,11.05
2023-03-06T06:02:49.668Z,11.05
2023-03-06T06:05:16.561Z,10.95
2023-03-06T06:07:43.253Z,14.32
2023-03-06T06:10:11.565Z,12.30
2023-03-06T06:12:38.338Z,12.27
2023-03-06T06:15:06.613Z,11.32
2023-03-06T06:17:33.588Z,11.70
2023-03-06T06:20:00.400Z,11.80
2023-03-06T06:22:27.040Z,12.15
2023-03-06T06:24:54.072Z,13.52
2023-03-06T06:27:20.784Z,10.20
2023-03-06T06:29:51.380Z,14.55
2023-03-06T06:34:44.815Z,11.85
2023-03-06T06:37:11.685Z,14.02
2023-03-06T06:39:38.476Z,14.05
2023-03-06T06:42:28.148Z,13.85
2023-03-06T06:44:52.475Z,12.90
2023-03-06T06:47:24.655Z,13.65
2023-03-06T06:49:54.108Z,13.90
2023-03-06T06:52:21.797Z,15.75
2023-03-06T06:54:48.691Z,13.57
2023-03-06T06:57:15.989Z,14.45
2023-03-06T06:59:42.835Z,13.40
2023-03-06T07:02:14.225Z,13.10
2023-03-06T07:04:56.146Z,11.07
2023-03-06T07:07:25.417Z,11.70
2023-03-06T07:09:53.281Z,11.20
2023-03-06T07:12:20.076Z,9.88
2023-03-06T07:14:47.035Z,11.05
2023-03-06T07:17:14.167Z,11.68
2023-03-06T07:19:40.936Z,11.35
2023-03-06T07:22:07.837Z,9.10
2023-03-06T07:24:34.991Z,9.18
2023-03-06T07:27:01.836Z,10.70
2023-03-06T07:29:28.530Z,10.52
2023-03-06T07:31:55.392Z,12.57
2023-03-06T07:34:22.500Z,11.88
2023-03-06T07:36:50.878Z,6.28
2023-03-06T07:39:18.146Z,8.40
2023-03-06T07:41:44.861Z,8.95
2023-03-06T07:44:11.571Z,9.45
2023-03-06T07:46:38.347Z,7.55
2023-03-06T07:49:05.106Z,10.30
2023-03-06T07:51:31.807Z,10.05
2023-03-06T07:53:58.455Z,10.93
2023-03-06T07:56:25.235Z,10.20
2023-03-06T07:58:51.861Z,9.20
2023-03-06T08:01:21.040Z,7.80
2023-03-06T08:03:50.112Z,9.02
2023-03-06T08:06:25.672Z,9.57
2023-03-06T08:08:54.297Z,8.30
2023-03-06T08:11:24.123Z,7.38
2023-03-06T08:13:52.987Z,9.73
2023-03-06T08:16:25.506Z,9.52
2023-03-06T08:18:52.514Z,8.73
2023-03-06T08:21:22.125Z,9.15
2023-03-06T08:23:48.883Z,6.50
2023-03-06T08:26:18.557Z,8.52
2023-03-06T08:28:45.640Z,7.47
2023-03-06T08:31:23.215Z,6.15
2023-03-06T08:33:50.023Z,9.95
2023-03-06T08:36:17.032Z,7.03
2023-03-06T08:38:43.731Z,8.35
2023-03-06T08:41:10.656Z,7.15
2023-03-06T08:43:37.456Z,8.07
2023-03-06T08:46:04.268Z,12.23
2023-03-06T08:48:31.140Z,7.75
2023-03-06T08:50:57.908Z,5.70
2023-03-06T08:53:40.499Z,6.07
2023-03-06T08:56:25.515Z,11.70
2023-03-06T08:58:53.355Z,9.80
2023-03-06T09:01:23.639Z,8.02
2023-03-06T09:03:51.175Z,4.35
2023-03-06T09:06:17.827Z,7.60
2023-03-06T09:08:44.769Z,6.38
2023-03-06T09:11:15.956Z,7.28
2023-03-06T09:13:43.550Z,5.68
2023-03-06T09:16:11.699Z,5.95
2023-03-06T09:18:38.660Z,9.00
2023-03-06T09:21:06.067Z,6.20
2023-03-06T09:23:32.854Z,6.72
2023-03-06T09:26:00.900Z,7.50
2023-03-06T09:28:27.934Z,5.78
2023-03-06T09:30:55.156Z,8.10
2023-03-06T09:33:22.533Z,5.00
2023-03-06T09:35:53.101Z,6.15
2023-03-06T09:38:22.063Z,7.50
2023-03-06T09:40:57.825Z,10.52
2023-03-06T09:43:30.426Z,7.32
2023-03-06T09:45:59.076Z,11.38
2023-03-06T09:48:41.714Z,9.05
2023-03-06T09:51:15.336Z,3.60
2023-03-06T09:54:16.071Z,7.43
2023-03-06T09:59:22.028Z,4.97
2023-03-06T10:04:51.971Z,7.50
2023-03-06T10:07:28.322Z,8.77
2023-03-06T10:10:02.893Z,6.22
2023-03-06T10:12:38.107Z,6.57
2023-03-06T10:15:20.620Z,7.85
2023-03-06T10:17:48.330Z,10.70
2023-03-06T10:20:17.314Z,7.63
2023-03-06T10:23:01.267Z,5.22
2023-03-06T10:25:36.264Z,6.32
2023-03-06T10:28:30.785Z,7.20
2023-03-06T10:31:11.691Z,5.10
2023-03-06T10:33:56.785Z,7.00
2023-03-06T10:36:27.320Z,4.85
2023-03-06T10:41:33.043Z,6.68
2023-03-06T10:43:59.672Z,7.90
2023-03-06T10:46:29.303Z,6.90
2023-03-06T10:49:01.435Z,5.17
2023-03-06T10:51:29.492Z,5.18
2023-03-06T10:53:59.594Z,6.43
2023-03-06T10:56:33.958Z,8.68
2023-03-06T10:59:25.224Z,8.35
2023-03-06T11:01:54.843Z,3.67
2023-03-06T11:04:34.753Z,7.10
2023-03-06T11:07:12.890Z,12.68
2023-03-06T11:09:40.133Z,4.72
2023-03-06T11:12:42.521Z,3.58
2023-03-06T11:15:17.393Z,3.92
2023-03-06T11:18:09.205Z,5.47
2023-03-06T11:20:53.152Z,5.07
2023-03-06T11:23:42.909Z,4.50
2023-03-06T11:26:15.522Z,5.90
2023-03-06T11:28:50.018Z,9.30
2023-03-06T11:31:20.917Z,3.67
2023-03-06T11:34:14.543Z,7.88
2023-03-06T11:36:47.505Z,8.30
2023-03-06T11:39:56.321Z,5.40
2023-03-06T11:42:35.929Z,13.02
2023-03-06T11:45:14.902Z,10.23
2023-03-06T11:47:50.426Z,8.93
2023-03-06T11:50:31.285Z,9.70
2023-03-06T11:53:01.669Z,8.35
2023-03-06T11:55:55.639Z,3.47
2023-03-06T11:58:40.679Z,7.60
2023-03-06T12:01:22.363Z,7.65
2023-03-06T12:04:21.099Z,5.32
2023-03-06T12:06:56.952Z,4.70
2023-03-06T12:09:38.552Z,6.13
2023-03-06T12:12:20.696Z,7.68
2023-03-06T12:15:22.768Z,6.25
2023-03-06T12:18:17.159Z,7.55
2023-03-06T12:20:58.685Z,8.00
2023-03-06T12:23:34.215Z,4.90
2023-03-06T12:26:06.692Z,6.30
2023-03-06T12:29:01.394Z,5.90
2023-03-06T12:32:06.384Z,9.07
2023-03-06T12:35:16.623Z,8.23
2023-03-06T12:38:06.067Z,10.15
2023-03-06T12:40:47.957Z,7.97
2023-03-06T12:43:51.973Z,8.27
2023-03-06T12:46:26.958Z,9.10
2023-03-06T12:49:08.902Z,9.32
2023-03-06T12:51:36.589Z,8.35
2023-03-06T12:54:03.780Z,5.80
2023-03-06T12:56:33.142Z,7.85
2023-03-06T12:59:04.005Z,4.32
2023-03-06T13:02:02.426Z,9.40
2023-03-06T13:04:48.590Z,8.70
2023-03-06T13:07:23.017Z,6.10
2023-03-06T13:10:06.526Z,6.35
2023-03-06T13:12:50.677Z,8.88
2023-03-06T13:15:40.702Z,7.40
2023-03-06T13:18:22.584Z,7.13
2023-03-06T13:20:53.914Z,7.78
2023-03-06T13:23:29.589Z,6.43
2023-03-06T13:26:31.518Z,5.88
2023-03-06T13:28:58.720Z,10.40
2023-03-06T13:31:36.581Z,7.05
2023-03-06T13:34:05.403Z,6.68
2023-03-06T13:36:39.480Z,6.90
2023-03-06T13:39:13.035Z,7.93
2023-03-06T13:41:57.099Z,8.82
2023-03-06T13:44:23.775Z,5.30
2023-03-06T13:47:05.135Z,6.30
2023-03-06T13:49:33.249Z,6.65
2023-03-06T13:52:02.825Z,8.50
2023-03-06T13:54:49.787Z,8.13
2023-03-06T13:57:25.561Z,9.50
2023-03-06T14:00:10.325Z,10.43
2023-03-06T14:02:54.899Z,12.07
2023-03-06T14:05:22.523Z,8.35
2023-03-06T14:08:29.741Z,14.07
2023-03-06T14:11:04.060Z,8.05
2023-03-06T14:13:47.218Z,10.07
2023-03-06T14:16:23.040Z,12.57
2023-03-06T14:18:52.083Z,10.05
2023-03-06T14:21:37.476Z,9.38
2023-03-06T14:24:05.575Z,8.45
2023-03-06T14:26:44.931Z,7.35
2023-03-06T14:29:26.529Z,6.63
2023-03-06T14:31:56.369Z,6.35
2023-03-06T14:34:24.998Z,9.70
2023-03-06T14:36:53.929Z,7.25
2023-03-06T14:39:21.036Z,6.15
2023-03-06T14:41:47.897Z,7.65
2023-03-06T14:44:23.282Z,6.03
2023-03-06T14:46:52.836Z,6.25
2023-03-06T14:49:22.087Z,7.18
2023-03-06T14:51:54.069Z,6.57
2023-03-06T14:54:47.996Z,8.57
2023-03-06T14:57:20.032Z,6.15
2023-03-06T14:59:59.395Z,12.48
2023-03-06T15:02:33.035Z,12.45
2023-03-06T15:05:11.303Z,11.68
2023-03-06T15:07:38.410Z,7.25
2023-03-06T15:10:10.470Z,8.45
2023-03-06T15:12:38.927Z,9.88
2023-03-06T15:15:10.464Z,7.35
2023-03-06T15:17:45.135Z,9.80
2023-03-06T15:20:38.541Z,7.93
2023-03-06T15:23:16.611Z,6.63
2023-03-06T15:25:56.582Z,8.50
2023-03-06T15:28:37.223Z,7.47
2023-03-06T15:31:05.505Z,8.02
2023-03-06T15:33:32.198Z,7.80
2023-03-06T15:36:17.817Z,9.02
2023-03-06T15:38:46.670Z,5.25
2023-03-06T15:41:21.677Z,6.80
2023-03-06T15:43:48.289Z,4.28
2023-03-06T15:46:15.111Z,8.80
2023-03-06T15:48:56.054Z,7.90
2023-03-06T15:51:22.889Z,8.32
2023-03-06T15:53:50.277Z,8.00
2023-03-06T15:56:28.795Z,5.03
2023-03-06T15:59:00.301Z,8.68
2023-03-06T16:01:27.101Z,9.45
2023-03-06T16:03:53.835Z,7.10
2023-03-06T16:06:24.695Z,8.35
2023-03-06T16:08:52.190Z,8.85
2023-03-06T16:11:35.422Z,10.05
2023-03-06T16:14:18.911Z,12.63
2023-03-06T16:16:45.991Z,8.75
2023-03-06T16:19:25.978Z,9.93
2023-03-06T16:21:54.877Z,6.03
2023-03-06T16:24:21.970Z,7.63
2023-03-06T16:26:51.138Z,7.40
2023-03-06T16:29:19.949Z,5.30
2023-03-06T16:31:47.058Z,9.80
2023-03-06T16:34:14.476Z,8.63
2023-03-06T16:36:41.968Z,13.38
2023-03-06T16:39:20.635Z,13.25
2023-03-06T16:41:49.460Z,13.68
2023-03-06T16:44:16.489Z,13.38
2023-03-06T16:46:45.926Z,14.18
2023-03-06T16:49:30.995Z,13.63
2023-03-06T16:51:57.914Z,13.32
2023-03-06T16:54:26.208Z,13.32
2023-03-06T16:56:53.106Z,15.25
2023-03-06T16:59:19.819Z,12.95
2023-03-06T17:01:46.660Z,14.27
2023-03-06T17:04:13.720Z,14.48
2023-03-06T17:06:41.777Z,14.77
2023-03-06T17:09:10.764Z,15.13
2023-03-06T17:11:42.860Z,15.95
2023-03-06T17:14:09.666Z,16.05
2023-03-06T17:16:40.223Z,16.80
2023-03-06T17:21:35.473Z,15.15
2023-03-06T17:24:03.850Z,15.90
2023-03-06T17:26:30.763Z,15.82
2023-03-06T17:28:57.771Z,18.02
2023-03-06T17:31:27.245Z,16.58
2023-03-06T17:34:01.867Z,17.17
2023-03-06T17:36:30.403Z,17.30
2023-03-06T17:38:58.899Z,16.90
2023-03-06T17:41:26.020Z,17.65
2023-03-06T17:43:55.028Z,18.00
2023-03-06T17:46:22.065Z,15.90
2023-03-06T17:48:48.894Z,17.15
2023-03-06T17:51:15.667Z,17.08
2023-03-06T17:53:42.371Z,18.40
2023-03-06T17:56:12.654Z,18.67
2023-03-06T17:58:39.403Z,19.75
2023-03-06T18:01:21.199Z,19.48
2023-03-06T18:03:50.029Z,19.08
2023-03-06T18:06:18.035Z,18.48
2023-03-06T18:08:46.093Z,18.83
2023-03-06T18:11:13.029Z,19.25
2023-03-06T18:13:42.885Z,19.02
2023-03-06T18:16:12.970Z,21.88
2023-03-06T18:18:40.411Z,19.80
2023-03-06T18:21:10.169Z,21.52
2023-03-06T18:23:38.033Z,20.38
2023-03-06T18:26:34.342Z,20.27
2023-03-06T18:29:04.629Z,20.30
2023-03-06T18:31:39.966Z,22.65
2023-03-06T18:34:10.721Z,20.08
2023-03-06T18:36:38.479Z,20.13
2023-03-06T18:39:09.740Z,21.35
2023-03-06T18:41:36.876Z,21.65
2023-03-06T18:44:04.491Z,20.08
2023-03-06T18:46:36.861Z,22.55
2023-03-06T18:49:04.554Z,21.90
2023-03-06T18:51:31.880Z,22.95
2023-03-06T18:54:03.457Z,20.52
2023-03-06T18:56:30.658Z,22.33
2023-03-06T18:59:01.985Z,22.67
2023-03-06T19:01:30.843Z,21.50
2023-03-06T19:04:02.508Z,19.90
2023-03-06T19:06:30.028Z,20.67
2023-03-06T19:09:01.868Z,20.92
2023-03-06T19:11:30.635Z,20.60
2023-03-06T19:13:57.799Z,21.02
2023-03-06T19:16:27.117Z,21.95
2023-03-06T19:18:55.857Z,19.52
2023-03-06T19:21:24.206Z,22.67
2023-03-06T19:23:51.368Z,23.85
2023-03-06T19:26:21.359Z,21.50
2023-03-06T19:28:49.278Z,21.40
2023-03-06T19:31:19.607Z,22.20
2023-03-06T19:33:47.751Z,22.00
2023-03-06T19:36:16.613Z,23.75
2023-03-06T19:38:43.643Z,24.63
2023-03-06T19:41:13.556Z,24.38
2023-03-06T19:43:41.589Z,24.67
2023-03-06T19:46:15.299Z,26.67
2023-03-06T19:48:42.739Z,25.88
2023-03-06T19:51:10.727Z,26.25
2023-03-06T19:53:39.674Z,25.52
2023-03-06T19:56:09.257Z,27.00
2023-03-06T19:58:36.682Z,28.85
2023-03-06T20:01:15.298Z,26.92
2023-03-06T20:03:42.707Z,28.08
2023-03-06T20:06:18.754Z,25.95
2023-03-06T20:08:46.959Z,25.75
2023-03-06T20:11:18.390Z,27.83
2023-03-06T20:13:47.815Z,27.77
2023-03-06T20:16:15.701Z,28.08
2023-03-06T20:18:42.621Z,28.50
2023-03-06T20:21:09.547Z,29.50
2023-03-06T20:23:36.443Z,29.13
2023-03-06T20:26:09.762Z,29.13
2023-03-06T20:28:38.677Z,31.33
2023-03-06T20:31:11.281Z,30.95
2023-03-06T20:33:38.113Z,28.83
2023-03-06T20:36:11.198Z,29.92
2023-03-06T20:38:39.035Z,31.13
2023-03-06T20:41:05.679Z,29.70
2023-03-06T20:43:32.473Z,32.28
2023-03-06T20:46:02.732Z,30.70
2023-03-06T20:48:30.018Z,30.27
2023-03-06T20:51:23.739Z,29.75
2023-03-06T20:53:53.197Z,29.58
2023-03-06T20:56:22.074Z,29.77
2023-03-06T20:58:48.862Z,31.58
2023-03-06T21:01:24.308Z,30.60
2023-03-06T21:03:52.126Z,32.17
2023-03-06T21:06:19.885Z,31.73
2023-03-06T21:08:47.275Z,30.80
2023-03-06T21:11:14.674Z,32.53
2023-03-06T21:13:41.950Z,30.25
2023-03-06T21:16:11.723Z,31.77
2023-03-06T21:18:38.503Z,29.73
2023-03-06T21:21:10.746Z,30.65
2023-03-06T21:23:38.297Z,30.80
2023-03-06T21:26:05.315Z,28.90
2023-03-06T21:28:32.658Z,28.63
2023-03-06T21:31:02.912Z,29.23
2023-03-06T21:33:29.800Z,26.70
2023-03-06T21:35:56.602Z,29.17
2023-03-06T21:38:23.398Z,31.25
2023-03-06T21:40:50.132Z,27.13
2023-03-06T21:43:17.657Z,28.27
2023-03-06T21:45:52.740Z,26.95
2023-03-06T21:48:19.660Z,28.05
2023-03-06T21:50:46.388Z,30.25
2023-03-06T21:53:13.144Z,28.20
2023-03-06T21:55:40.876Z,28.33
2023-03-06T21:58:08.727Z,29.02
2023-03-06T22:00:36.692Z,30.35
2023-03-06T22:03:04.735Z,28.38
2023-03-06T22:05:34.631Z,28.85
2023-03-06T22:08:01.497Z,29.30
2023-03-06T22:10:28.257Z,29.30
2023-03-06T22:12:55.186Z,29.10
2023-03-06T22:15:22.210Z,30.05
2023-03-06T22:17:49.343Z,31.50
2023-03-06T22:20:16.509Z,31.65
2023-03-06T22:22:44.012Z,30.02
2023-03-06T22:25:12.034Z,32.97
2023-03-06T22:27:39.036Z,30.00
2023-03-06T22:30:06.654Z,31.08
2023-03-06T22:32:33.566Z,30.73
2023-03-06T22:35:00.403Z,28.98
2023-03-06T22:37:27.357Z,30.08
2023-03-06T22:39:54.429Z,31.67
2023-03-06T22:42:21.176Z,30.55
2023-03-06T22:44:47.962Z,30.77
2023-03-06T22:47:14.805Z,29.90
2023-03-06T22:49:41.881Z,29.42
2023-03-06T22:52:09.970Z,26.48
2023-03-06T22:54:36.749Z,27.75
2023-03-06T22:57:03.456Z,27.25
2023-03-06T22:59:30.497Z,28.05
2023-03-06T23:01:57.171Z,29.17
2023-03-06T23:04:23.982Z,26.13
2023-03-06T23:06:51.236Z,27.80
2023-03-06T23:09:22.423Z,26.77
2023-03-06T23:11:50.314Z,27.30
2023-03-06T23:14:18.845Z,26.15
2023-03-06T23:16:45.645Z,26.23
2023-03-06T23:19:12.512Z,24.45
2023-03-06T23:21:39.466Z,25.10
2023-03-06T23:24:07.142Z,24.40
2023-03-06T23:26:37.139Z,22.90
2023-03-06T23:29:04.487Z,23.90
2023-03-06T23:31:31.668Z,23.95
2023-03-06T23:34:01.095Z,22.38
2023-03-06T23:36:29.150Z,22.67
2023-03-06T23:38:56.255Z,22.60
2023-03-06T23:41:23.805Z,24.08
2023-03-06T23:43:52.875Z,23.48
2023-03-06T23:46:20.894Z,23.88
2023-03-06T23:48:47.718Z,24.23
2023-03-06T23:51:17.988Z,22.05
2023-03-06T23:53:45.974Z,20.90
2023-03-06T23:56:13.641Z,20.90
2023-03-06T23:58:40.880Z,19.40
